Terminal Aerodrome Forecast
Issued by NWS Wilmington, OH

Current Version | Previous Version | Graphics & Text | Print | Product List | Glossary On
Versions: 1 2 3 4 5 6 7 8 9 10 11 12 13
464
FTUS41 KILN 221128
TAFILN
TAF
KILN 221128Z 2212/2312 03012KT P6SM SKC
     FM221800 04010KT P6SM SKC
     FM230000 05006KT P6SM SCT250
     FM231000 09006KT P6SM SCT250=

USA.gov is the U.S. government's official web portal to all federal, state and local government web resources and services.